createdAt,value
2022-08-11T00:00:13.944Z,1.40
2022-08-11T00:02:43.968Z,1.13
2022-08-11T00:05:16.514Z,1.60
2022-08-11T00:07:57.979Z,1.50
2022-08-11T00:10:27.833Z,1.83
2022-08-11T00:13:04.944Z,1.40
2022-08-11T00:15:45.729Z,1.50
2022-08-11T00:18:17.041Z,1.47
2022-08-11T00:20:48.207Z,1.60
2022-08-11T00:23:18.346Z,1.43
2022-08-11T00:25:52.151Z,1.43
2022-08-11T00:28:32.421Z,1.70
2022-08-11T00:31:04.447Z,1.53
2022-08-11T00:33:44.763Z,1.30
2022-08-11T00:36:15.339Z,1.90
2022-08-11T00:38:43.935Z,1.40
2022-08-11T00:41:39.346Z,1.97
2022-08-11T00:44:44.092Z,1.60
2022-08-11T00:47:38.356Z,1.50
2022-08-11T00:50:37.902Z,1.43
2022-08-11T00:53:38.710Z,1.50
2022-08-11T00:56:39.004Z,1.90
2022-08-11T00:59:34.592Z,1.60
2022-08-11T01:02:36.194Z,1.73
2022-08-11T01:05:12.129Z,2.20
2022-08-11T01:08:12.779Z,1.57
2022-08-11T01:11:02.873Z,1.77
2022-08-11T01:13:48.439Z,1.50
2022-08-11T01:16:49.603Z,1.30
2022-08-11T01:20:46.535Z,1.77
2022-08-11T01:23:18.397Z,1.50
2022-08-11T01:25:57.925Z,1.73
2022-08-11T01:28:52.845Z,1.90
2022-08-11T01:31:42.583Z,2.00
2022-08-11T01:34:27.506Z,1.43
2022-08-11T01:37:18.297Z,1.50
2022-08-11T01:40:15.627Z,1.77
2022-08-11T01:43:28.339Z,1.90
2022-08-11T01:46:06.775Z,1.70
2022-08-11T01:48:42.034Z,1.60
2022-08-11T01:51:27.126Z,2.10
2022-08-11T01:54:04.115Z,1.57
2022-08-11T01:57:00.430Z,2.00
2022-08-11T01:59:38.044Z,2.33
2022-08-11T02:02:21.528Z,1.50
2022-08-11T02:05:14.610Z,1.80
2022-08-11T02:08:33.221Z,1.77
2022-08-11T02:11:34.452Z,2.00
2022-08-11T02:14:28.269Z,1.63
2022-08-11T02:16:58.185Z,1.37
2022-08-11T02:20:00.329Z,2.43
2022-08-11T02:24:05.621Z,1.60
2022-08-11T02:26:09.662Z,1.60
2022-08-11T02:28:46.656Z,1.80
2022-08-11T02:32:24.399Z,1.60
2022-08-11T02:35:12.099Z,1.57
2022-08-11T02:38:04.775Z,1.70
2022-08-11T02:40:43.450Z,1.97
2022-08-11T02:43:27.319Z,1.60
2022-08-11T02:46:23.352Z,1.90
2022-08-11T02:49:12.310Z,1.50
2022-08-11T02:51:56.990Z,1.80
2022-08-11T02:54:36.183Z,1.60
2022-08-11T02:57:40.021Z,2.30
2022-08-11T03:00:08.538Z,2.33
2022-08-11T03:03:07.764Z,2.00
2022-08-11T03:06:04.650Z,1.83
2022-08-11T03:08:58.540Z,1.80
2022-08-11T03:11:53.209Z,1.97
2022-08-11T03:14:46.443Z,2.13
2022-08-11T03:17:31.148Z,1.90
2022-08-11T03:20:25.805Z,2.20
2022-08-11T03:23:03.201Z,2.00
2022-08-11T03:25:43.939Z,2.17
2022-08-11T03:28:19.625Z,2.27
2022-08-11T03:31:16.166Z,2.07
2022-08-11T03:34:08.023Z,2.20
2022-08-11T03:37:15.067Z,2.10
2022-08-11T03:39:57.600Z,2.07
2022-08-11T03:42:35.748Z,2.80
2022-08-11T03:45:41.130Z,2.43
2022-08-11T03:48:17.377Z,2.33
2022-08-11T03:50:56.879Z,2.33
2022-08-11T03:53:56.260Z,2.47
2022-08-11T03:56:41.629Z,2.33
2022-08-11T03:59:38.232Z,2.13
2022-08-11T04:02:29.140Z,2.50
2022-08-11T04:05:32.555Z,1.90
2022-08-11T04:08:05.588Z,2.40
2022-08-11T04:11:17.683Z,2.23
2022-08-11T04:14:31.265Z,2.10
2022-08-11T04:17:28.381Z,2.90
2022-08-11T04:20:16.732Z,1.90
2022-08-11T04:24:33.071Z,1.93
2022-08-11T04:26:29.465Z,2.43
2022-08-11T04:29:35.973Z,2.07
2022-08-11T04:32:09.437Z,2.00
2022-08-11T04:34:57.787Z,2.50
2022-08-11T04:38:01.662Z,2.47
2022-08-11T04:40:58.401Z,2.83
2022-08-11T04:44:02.691Z,2.80
2022-08-11T04:46:49.428Z,2.90
2022-08-11T04:50:19.942Z,2.63
2022-08-11T04:53:27.428Z,2.50
2022-08-11T04:56:30.634Z,2.10
2022-08-11T04:59:53.820Z,2.50
2022-08-11T05:02:50.823Z,2.93
2022-08-11T05:05:56.647Z,3.10
2022-08-11T05:09:11.376Z,2.73
2022-08-11T05:11:57.983Z,2.70
2022-08-11T05:15:11.363Z,2.80
2022-08-11T05:18:19.249Z,2.70
2022-08-11T05:21:14.542Z,2.90
2022-08-11T05:24:07.801Z,2.60
2022-08-11T05:27:04.420Z,3.00
2022-08-11T05:30:16.113Z,3.30
2022-08-11T05:33:04.789Z,3.13
2022-08-11T05:36:01.834Z,3.43
2022-08-11T05:38:51.837Z,2.90
2022-08-11T05:41:41.860Z,2.80
2022-08-11T05:44:30.256Z,2.70
2022-08-11T05:47:18.969Z,3.10
2022-08-11T05:50:13.714Z,2.50
2022-08-11T05:53:05.135Z,3.20
2022-08-11T05:56:03.518Z,3.13
2022-08-11T05:58:46.676Z,2.73
2022-08-11T06:01:24.087Z,3.70
2022-08-11T06:04:12.792Z,2.80
2022-08-11T06:07:00.578Z,3.10
2022-08-11T06:09:49.233Z,2.90
2022-08-11T06:12:19.168Z,2.50
2022-08-11T06:14:46.855Z,2.97
2022-08-11T06:17:14.260Z,3.33
2022-08-11T06:19:42.950Z,3.03
2022-08-11T06:22:19.774Z,3.00
2022-08-11T06:24:54.474Z,3.60
2022-08-11T06:27:26.585Z,3.53
2022-08-11T06:29:55.798Z,2.87
2022-08-11T06:32:31.702Z,2.87
2022-08-11T06:35:10.068Z,3.30
2022-08-11T06:38:01.517Z,3.10
2022-08-11T06:41:12.575Z,3.00
2022-08-11T06:43:55.918Z,3.23
2022-08-11T06:46:39.043Z,2.80
2022-08-11T06:49:28.505Z,2.80
2022-08-11T06:52:01.655Z,3.30
2022-08-11T06:54:41.455Z,3.00
2022-08-11T06:57:32.493Z,3.10
2022-08-11T07:00:20.999Z,3.63
2022-08-11T07:02:54.086Z,3.20
2022-08-11T07:05:44.003Z,2.93
2022-08-11T07:08:48.393Z,3.00
2022-08-11T07:12:08.754Z,3.23
2022-08-11T07:15:01.021Z,3.03
2022-08-11T07:17:31.844Z,3.37
2022-08-11T07:20:19.684Z,2.43
2022-08-11T07:23:17.411Z,3.03
2022-08-11T07:26:08.840Z,2.90
2022-08-11T07:29:01.027Z,3.20
2022-08-11T07:31:51.205Z,2.67
2022-08-11T07:34:24.125Z,2.90
2022-08-11T07:36:56.707Z,2.80
2022-08-11T07:39:34.019Z,3.00
2022-08-11T07:42:07.029Z,3.07
2022-08-11T07:44:55.142Z,2.70
2022-08-11T07:47:42.077Z,2.50
2022-08-11T07:50:28.712Z,2.80
2022-08-11T07:53:02.636Z,3.00
2022-08-11T07:55:51.036Z,2.37
2022-08-11T07:58:45.534Z,2.57
2022-08-11T08:01:44.541Z,2.33
2022-08-11T08:04:33.155Z,2.70
2022-08-11T08:07:21.498Z,2.47
2022-08-11T08:10:14.063Z,2.50
2022-08-11T08:13:02.356Z,2.67
2022-08-11T08:15:51.417Z,2.73
2022-08-11T08:18:25.949Z,2.60
2022-08-11T08:21:11.790Z,2.67
2022-08-11T08:23:40.089Z,2.30
2022-08-11T08:26:29.419Z,2.17
2022-08-11T08:29:20.792Z,2.63
2022-08-11T08:31:51.728Z,2.30
2022-08-11T08:34:19.440Z,2.20
2022-08-11T08:36:51.044Z,2.60
2022-08-11T08:39:24.403Z,2.10
2022-08-11T08:41:58.271Z,2.03
2022-08-11T08:44:43.482Z,2.50
2022-08-11T08:47:38.762Z,2.20
2022-08-11T08:50:07.395Z,2.30
2022-08-11T08:52:43.700Z,2.27
2022-08-11T08:55:20.696Z,2.00
2022-08-11T08:57:50.830Z,2.13
2022-08-11T09:00:23.207Z,1.93
2022-08-11T09:02:55.879Z,2.13
2022-08-11T09:05:23.368Z,2.13
2022-08-11T09:07:54.379Z,2.20
2022-08-11T09:10:21.646Z,2.10
2022-08-11T09:12:50.157Z,1.83
2022-08-11T09:15:19.571Z,1.80
2022-08-11T09:18:06.362Z,2.10
2022-08-11T09:20:38.477Z,2.10
2022-08-11T09:24:07.754Z,1.90
2022-08-11T09:26:33.532Z,2.00
2022-08-11T09:29:01.962Z,1.90
2022-08-11T09:31:39.687Z,2.20
2022-08-11T09:34:08.471Z,1.90
2022-08-11T09:36:54.049Z,1.70
2022-08-11T09:39:39.850Z,1.80
2022-08-11T09:42:11.425Z,1.70
2022-08-11T09:44:50.806Z,2.27
2022-08-11T09:47:27.916Z,1.70
2022-08-11T09:50:04.270Z,1.80
2022-08-11T09:52:35.852Z,1.90
2022-08-11T09:55:06.324Z,1.90
2022-08-11T09:57:51.820Z,1.93
2022-08-11T10:00:18.908Z,2.00
2022-08-11T10:02:48.827Z,1.70
2022-08-11T10:05:37.764Z,1.87
2022-08-11T10:08:07.287Z,2.13
2022-08-11T10:10:41.240Z,1.90
2022-08-11T10:14:30.817Z,1.80
2022-08-11T10:16:15.192Z,2.03
2022-08-11T10:18:55.819Z,2.90
2022-08-11T10:21:40.051Z,2.70
2022-08-11T10:24:29.271Z,1.67
2022-08-11T10:27:03.383Z,1.70
2022-08-11T10:30:08.072Z,2.57
2022-08-11T10:32:58.852Z,2.30
2022-08-11T10:35:32.236Z,2.20
2022-08-11T10:38:06.086Z,2.03
2022-08-11T10:40:40.365Z,2.20
2022-08-11T10:43:13.801Z,1.80
2022-08-11T10:46:03.939Z,1.70
2022-08-11T10:48:37.969Z,2.40
2022-08-11T10:51:50.148Z,2.00
2022-08-11T10:54:26.984Z,1.80
2022-08-11T10:57:15.528Z,1.97
2022-08-11T10:59:43.392Z,1.63
2022-08-11T11:02:14.764Z,2.10
2022-08-11T11:04:52.535Z,1.70
2022-08-11T11:07:27.187Z,2.00
2022-08-11T11:09:58.562Z,1.80
2022-08-11T11:12:52.686Z,2.43
2022-08-11T11:15:40.905Z,1.70
2022-08-11T11:18:15.671Z,1.60
2022-08-11T11:20:47.983Z,1.77
2022-08-11T11:23:32.576Z,1.80
2022-08-11T11:26:11.894Z,2.10
2022-08-11T11:28:47.590Z,2.03
2022-08-11T11:31:33.348Z,2.13
2022-08-11T11:34:26.734Z,1.50
2022-08-11T11:37:02.034Z,1.60
2022-08-11T11:39:33.680Z,1.50
2022-08-11T11:42:04.302Z,1.47
2022-08-11T11:44:35.379Z,1.50
2022-08-11T11:47:02.668Z,1.90
2022-08-11T11:49:32.502Z,1.93
2022-08-11T11:52:00.836Z,1.67
2022-08-11T11:54:31.285Z,2.20
2022-08-11T11:57:19.183Z,1.70
2022-08-11T12:00:05.456Z,1.70
2022-08-11T12:02:36.742Z,1.50
2022-08-11T12:05:08.028Z,1.50
2022-08-11T12:07:56.856Z,1.83
2022-08-11T12:10:32.597Z,1.73
2022-08-11T12:13:24.275Z,1.50
2022-08-11T12:16:31.330Z,1.33
2022-08-11T12:18:42.775Z,1.63
2022-08-11T12:21:10.724Z,1.63
2022-08-11T12:24:02.267Z,1.63
2022-08-11T12:27:02.752Z,1.60
2022-08-11T12:29:41.216Z,2.00
2022-08-11T12:32:11.507Z,2.00
2022-08-11T12:34:38.873Z,1.97
2022-08-11T12:37:13.135Z,1.80
2022-08-11T12:40:42.957Z,1.60
2022-08-11T12:43:24.293Z,1.40
2022-08-11T12:46:11.787Z,1.50
2022-08-11T12:49:04.396Z,1.63
2022-08-11T12:52:06.784Z,1.30
2022-08-11T12:54:50.369Z,1.33
2022-08-11T12:57:54.040Z,0.90
2022-08-11T13:00:40.265Z,1.33
2022-08-11T13:03:30.278Z,1.10
2022-08-11T13:06:02.511Z,0.95
2022-08-11T13:08:33.159Z,0.90
2022-08-11T13:11:22.330Z,0.80
2022-08-11T13:13:53.438Z,0.88
2022-08-11T13:16:25.158Z,0.90
2022-08-11T13:18:53.509Z,1.25
2022-08-11T13:21:22.319Z,1.00
2022-08-11T13:24:01.955Z,0.80
2022-08-11T13:26:48.081Z,1.00
2022-08-11T13:29:29.042Z,0.98
2022-08-11T13:32:00.978Z,1.17
2022-08-11T13:34:32.607Z,1.02
2022-08-11T13:37:01.960Z,1.02
2022-08-11T13:39:31.377Z,1.10
2022-08-11T13:42:02.513Z,1.38
2022-08-11T13:44:33.327Z,1.10
2022-08-11T13:47:04.805Z,1.15
2022-08-11T13:49:35.657Z,1.00
2022-08-11T13:52:07.108Z,1.00
2022-08-11T13:54:38.472Z,1.10
2022-08-11T13:57:09.432Z,1.30
2022-08-11T13:59:52.074Z,1.33
2022-08-11T14:02:29.529Z,1.50
2022-08-11T14:05:11.468Z,1.17
2022-08-11T14:07:42.198Z,1.00
2022-08-11T14:10:13.015Z,1.10
2022-08-11T14:13:01.821Z,1.13
2022-08-11T14:15:32.971Z,0.93
2022-08-11T14:18:19.172Z,0.90
2022-08-11T14:21:10.659Z,0.85
2022-08-11T14:23:43.253Z,0.80
2022-08-11T14:26:23.674Z,0.73
2022-08-11T14:28:56.490Z,0.88
2022-08-11T14:31:26.030Z,0.90
2022-08-11T14:34:02.132Z,0.80
2022-08-11T14:36:36.154Z,0.90
2022-08-11T14:39:18.502Z,1.00
2022-08-11T14:42:11.324Z,0.80
2022-08-11T14:45:05.165Z,0.70
2022-08-11T14:47:36.032Z,0.80
2022-08-11T14:50:11.304Z,1.10
2022-08-11T14:53:08.387Z,0.80
2022-08-11T14:56:02.463Z,0.82
2022-08-11T14:58:33.868Z,1.05
2022-08-11T15:01:03.581Z,1.00
2022-08-11T15:03:33.778Z,0.73
2022-08-11T15:06:02.421Z,1.00
2022-08-11T15:08:52.538Z,1.00
2022-08-11T15:11:41.125Z,1.17
2022-08-11T15:14:10.660Z,0.90
2022-08-11T15:16:59.523Z,0.90
2022-08-11T15:19:29.927Z,1.20
2022-08-11T15:22:28.866Z,1.20
2022-08-11T15:24:58.251Z,1.20
2022-08-11T15:27:45.331Z,1.60
2022-08-11T15:30:32.912Z,1.13
2022-08-11T15:33:27.717Z,1.10
2022-08-11T15:36:19.907Z,1.17
2022-08-11T15:38:55.243Z,1.23
2022-08-11T15:41:54.522Z,1.50
2022-08-11T15:45:02.250Z,0.90
2022-08-11T15:47:36.653Z,1.20
2022-08-11T15:50:11.779Z,0.97
2022-08-11T15:52:52.410Z,1.10
2022-08-11T15:55:21.033Z,1.20
2022-08-11T15:58:08.808Z,1.07
2022-08-11T16:01:03.776Z,1.40
2022-08-11T16:04:06.647Z,1.20
2022-08-11T16:06:54.793Z,1.17
2022-08-11T16:09:28.063Z,1.20
2022-08-11T16:12:06.859Z,1.30
2022-08-11T16:14:57.719Z,1.00
2022-08-11T16:17:27.656Z,1.10
2022-08-11T16:19:56.869Z,1.40
2022-08-11T16:22:35.880Z,1.20
2022-08-11T16:27:06.206Z,1.20
2022-08-11T16:28:05.672Z,1.00
2022-08-11T16:30:35.166Z,1.10
2022-08-11T16:33:49.087Z,1.13
2022-08-11T16:36:10.831Z,1.13
2022-08-11T16:38:39.769Z,1.13
2022-08-11T16:41:14.201Z,1.20
2022-08-11T16:44:06.512Z,1.40
2022-08-11T16:46:54.938Z,1.30
2022-08-11T16:49:34.553Z,1.60
2022-08-11T16:52:04.148Z,1.43
2022-08-11T16:54:35.446Z,1.67
2022-08-11T16:57:35.964Z,1.90
2022-08-11T17:00:06.896Z,1.60
2022-08-11T17:03:00.691Z,1.00
2022-08-11T17:05:54.399Z,1.70
2022-08-11T17:08:58.142Z,1.60
2022-08-11T17:11:49.760Z,1.60
2022-08-11T17:14:35.029Z,1.70
2022-08-11T17:17:08.326Z,1.63
2022-08-11T17:20:42.264Z,2.10
2022-08-11T17:22:50.478Z,1.60
2022-08-11T17:25:20.353Z,1.50
2022-08-11T17:27:50.868Z,2.17
2022-08-11T17:30:17.893Z,1.33
2022-08-11T17:33:09.985Z,1.67
2022-08-11T17:35:39.159Z,1.40
2022-08-11T17:38:20.589Z,1.20
2022-08-11T17:41:10.221Z,1.10
2022-08-11T17:44:04.919Z,1.10
2022-08-11T17:46:51.221Z,1.13
2022-08-11T17:49:21.320Z,1.27
2022-08-11T17:52:08.950Z,1.67
2022-08-11T17:54:56.073Z,1.20
2022-08-11T17:57:47.617Z,1.20
2022-08-11T18:00:15.545Z,1.30
2022-08-11T18:03:07.948Z,1.50
2022-08-11T18:05:37.200Z,1.23
2022-08-11T18:08:27.418Z,1.20
2022-08-11T18:11:17.551Z,1.47
2022-08-11T18:14:27.508Z,1.60
2022-08-11T18:17:13.122Z,1.33
2022-08-11T18:20:00.589Z,1.63
2022-08-11T18:22:52.292Z,1.40
2022-08-11T18:25:52.634Z,1.30
2022-08-11T18:28:45.044Z,1.57
2022-08-11T18:31:32.882Z,1.20
2022-08-11T18:34:24.484Z,1.63
2022-08-11T18:37:34.272Z,1.60
2022-08-11T18:40:35.979Z,1.77
2022-08-11T18:43:27.271Z,1.83
2022-08-11T18:46:23.288Z,1.27
2022-08-11T18:49:15.791Z,1.60
2022-08-11T18:52:08.149Z,1.60
2022-08-11T18:54:56.142Z,1.30
2022-08-11T18:57:50.093Z,1.40
2022-08-11T19:00:41.028Z,1.77
2022-08-11T19:03:29.506Z,1.63
2022-08-11T19:06:39.264Z,1.80
2022-08-11T19:09:27.625Z,2.33
2022-08-11T19:12:14.775Z,1.80
2022-08-11T19:15:02.146Z,2.30
2022-08-11T19:17:49.617Z,1.37
2022-08-11T19:20:44.308Z,1.57
2022-08-11T19:23:33.857Z,2.00
2022-08-11T19:26:21.308Z,1.63
2022-08-11T19:29:09.341Z,2.43
2022-08-11T19:32:16.515Z,1.80
2022-08-11T19:35:02.771Z,2.00
2022-08-11T19:37:48.355Z,1.77
2022-08-11T19:40:35.145Z,2.40
2022-08-11T19:43:23.487Z,2.07
2022-08-11T19:46:15.000Z,2.07
2022-08-11T19:49:03.089Z,1.70
2022-08-11T19:51:50.768Z,1.90
2022-08-11T19:54:44.195Z,2.00
2022-08-11T19:57:34.546Z,1.93
2022-08-11T20:00:35.023Z,1.93
2022-08-11T20:03:22.996Z,2.20
2022-08-11T20:06:09.594Z,1.97
2022-08-11T20:08:59.093Z,2.03
2022-08-11T20:11:49.012Z,1.90
2022-08-11T20:14:36.936Z,1.90
2022-08-11T20:17:25.451Z,1.63
2022-08-11T20:20:11.558Z,1.90
2022-08-11T20:22:57.885Z,2.33
2022-08-11T20:25:46.936Z,1.90
2022-08-11T20:28:35.399Z,1.50
2022-08-11T20:31:23.428Z,2.07
2022-08-11T20:34:09.069Z,1.80
2022-08-11T20:36:56.151Z,1.63
2022-08-11T20:39:45.747Z,1.80
2022-08-11T20:42:32.626Z,1.60
2022-08-11T20:45:24.049Z,1.67
2022-08-11T20:48:15.240Z,1.80
2022-08-11T20:51:07.555Z,1.73
2022-08-11T20:53:59.918Z,1.40
2022-08-11T20:56:54.560Z,1.60
2022-08-11T20:59:56.732Z,1.57
2022-08-11T21:02:44.955Z,1.50
2022-08-11T21:06:09.412Z,1.87
2022-08-11T21:08:46.437Z,1.87
2022-08-11T21:11:33.754Z,1.63
2022-08-11T21:14:21.942Z,1.80
2022-08-11T21:17:27.823Z,1.90
2022-08-11T21:20:20.633Z,1.67
2022-08-11T21:23:23.323Z,2.10
2022-08-11T21:26:29.952Z,1.80
2022-08-11T21:29:17.982Z,2.20
2022-08-11T21:32:04.652Z,1.60
2022-08-11T21:34:50.875Z,1.90
2022-08-11T21:37:38.047Z,2.20
2022-08-11T21:40:25.800Z,1.80
2022-08-11T21:43:12.573Z,1.60
2022-08-11T21:45:59.643Z,1.90
2022-08-11T21:48:46.419Z,1.67
2022-08-11T21:51:31.746Z,1.70
2022-08-11T21:54:19.185Z,1.63
2022-08-11T21:57:05.740Z,1.70
2022-08-11T22:00:06.812Z,1.60
2022-08-11T22:02:56.383Z,2.03
2022-08-11T22:05:42.599Z,1.93
2022-08-11T22:08:28.821Z,1.60
2022-08-11T22:11:15.015Z,1.70
2022-08-11T22:14:08.105Z,1.80
2022-08-11T22:16:54.483Z,2.10
2022-08-11T22:19:42.224Z,1.97
2022-08-11T22:22:31.720Z,1.43
2022-08-11T22:25:18.853Z,1.80
2022-08-11T22:28:06.367Z,2.10
2022-08-11T22:30:52.080Z,1.63
2022-08-11T22:33:42.061Z,1.70
2022-08-11T22:36:47.129Z,1.93
2022-08-11T22:39:35.452Z,1.97
2022-08-11T22:42:33.091Z,2.03
2022-08-11T22:45:19.959Z,1.60
2022-08-11T22:48:09.541Z,2.30
2022-08-11T22:50:59.861Z,1.77
2022-08-11T22:53:57.301Z,2.00
2022-08-11T22:56:48.355Z,1.70
2022-08-11T22:59:35.908Z,2.47
2022-08-11T23:02:23.662Z,2.00
2022-08-11T23:05:10.256Z,2.17
2022-08-11T23:07:56.761Z,1.60
2022-08-11T23:10:42.804Z,1.83
2022-08-11T23:13:28.363Z,2.00
2022-08-11T23:16:14.586Z,1.70
2022-08-11T23:19:01.054Z,2.03
2022-08-11T23:21:47.717Z,1.93
2022-08-11T23:24:33.822Z,1.87
2022-08-11T23:27:21.461Z,2.30
2022-08-11T23:30:09.144Z,1.70
2022-08-11T23:32:55.757Z,2.00
2022-08-11T23:35:53.800Z,1.83
2022-08-11T23:38:43.790Z,1.83
2022-08-11T23:41:33.137Z,1.60
2022-08-11T23:44:25.552Z,1.60
2022-08-11T23:47:17.798Z,1.87
2022-08-11T23:50:05.031Z,1.57
2022-08-11T23:52:52.890Z,2.07
2022-08-11T23:55:39.443Z,2.23
2022-08-11T23:58:25.942Z,1.67
